Terminal Aerodrome Forecast
Issued by NWS Binghamton, NY

Home | Current Version | Previous Version | Text Only | Print | Product List | Glossary On
Versions: 1 2 3 4 5 6 7 8 9 10 11 12 13 14 15 16
000
FTUS41 KBGM 060535
TAFAVP
TAF
KAVP 060535Z 0606/0706 00000KT P6SM SCT150
     FM061900 12006KT P6SM OVC140
     FM062200 12006KT 6SM -RASN OVC050
     FM062300 11005KT 3SM -RASN OVC035
     FM070000 11004KT 3SM -RASN OVC012
      TEMPO 0700/0704 2SM BR BKN009=

USA.gov is the U.S. government's official web portal to all federal, state and local government web resources and services.